sensor_id;sensor_type;location;lat;lon;timestamp;temperature;humidity
74901;DHT22;63461;51.416;6.758;2023-04-25T00:01:21;8.30;99.90
74901;DHT22;63461;51.416;6.758;2023-04-25T00:03:48;8.40;99.90
74901;DHT22;63461;51.416;6.758;2023-04-25T00:06:13;8.40;99.90
74901;DHT22;63461;51.416;6.758;2023-04-25T00:08:40;8.50;99.90
74901;DHT22;63461;51.416;6.758;2023-04-25T00:11:06;8.40;99.90
74901;DHT22;63461;51.416;6.758;2023-04-25T00:13:32;8.40;99.90
74901;DHT22;63461;51.416;6.758;2023-04-25T00:15:58;8.40;99.90
74901;DHT22;63461;51.416;6.758;2023-04-25T00:18:24;8.50;99.90
74901;DHT22;63461;51.416;6.758;2023-04-25T00:20:50;8.50;99.90
74901;DHT22;63461;51.416;6.758;2023-04-25T00:23:16;8.40;99.90
74901;DHT22;63461;51.416;6.758;2023-04-25T00:25:49;8.40;99.90
74901;DHT22;63461;51.416;6.758;2023-04-25T00:28:15;8.40;99.90
74901;DHT22;63461;51.416;6.758;2023-04-25T00:30:41;8.40;99.90
74901;DHT22;63461;51.416;6.758;2023-04-25T00:33:08;8.40;99.90
74901;DHT22;63461;51.416;6.758;2023-04-25T00:35:35;8.40;99.90
74901;DHT22;63461;51.416;6.758;2023-04-25T00:38:01;8.40;99.90
74901;DHT22;63461;51.416;6.758;2023-04-25T00:40:27;8.40;99.90
74901;DHT22;63461;51.416;6.758;2023-04-25T00:42:53;8.40;99.90
74901;DHT22;63461;51.416;6.758;2023-04-25T00:45:19;8.40;99.90
74901;DHT22;63461;51.416;6.758;2023-04-25T00:47:46;8.40;99.90
74901;DHT22;63461;51.416;6.758;2023-04-25T00:50:13;8.50;99.90
74901;DHT22;63461;51.416;6.758;2023-04-25T00:52:40;8.30;99.90
74901;DHT22;63461;51.416;6.758;2023-04-25T00:55:08;8.30;99.90
74901;DHT22;63461;51.416;6.758;2023-04-25T00:57:34;8.40;99.90
74901;DHT22;63461;51.416;6.758;2023-04-25T01:00:01;8.40;99.90
74901;DHT22;63461;51.416;6.758;2023-04-25T01:02:28;8.30;99.90
74901;DHT22;63461;51.416;6.758;2023-04-25T01:04:54;8.30;99.90
74901;DHT22;63461;51.416;6.758;2023-04-25T01:07:20;8.40;99.90
74901;DHT22;63461;51.416;6.758;2023-04-25T01:09:46;8.40;99.90
74901;DHT22;63461;51.416;6.758;2023-04-25T01:12:12;8.40;99.90
74901;DHT22;63461;51.416;6.758;2023-04-25T01:14:40;8.50;99.90
74901;DHT22;63461;51.416;6.758;2023-04-25T01:17:05;8.40;99.90
74901;DHT22;63461;51.416;6.758;2023-04-25T01:19:33;8.40;99.90
74901;DHT22;63461;51.416;6.758;2023-04-25T01:21:59;8.40;99.90
74901;DHT22;63461;51.416;6.758;2023-04-25T01:24:26;8.30;99.90
74901;DHT22;63461;51.416;6.758;2023-04-25T01:26:53;8.50;99.90
74901;DHT22;63461;51.416;6.758;2023-04-25T01:29:23;8.40;99.90
74901;DHT22;63461;51.416;6.758;2023-04-25T01:31:51;8.40;99.90
74901;DHT22;63461;51.416;6.758;2023-04-25T01:34:17;8.50;99.90
74901;DHT22;63461;51.416;6.758;2023-04-25T01:36:43;8.40;99.90
74901;DHT22;63461;51.416;6.758;2023-04-25T01:39:09;8.40;99.90
74901;DHT22;63461;51.416;6.758;2023-04-25T01:41:34;8.40;99.90
74901;DHT22;63461;51.416;6.758;2023-04-25T01:44:01;8.50;99.90
74901;DHT22;63461;51.416;6.758;2023-04-25T01:46:29;8.30;99.90
74901;DHT22;63461;51.416;6.758;2023-04-25T01:48:56;8.40;99.90
74901;DHT22;63461;51.416;6.758;2023-04-25T01:51:22;8.50;99.90
74901;DHT22;63461;51.416;6.758;2023-04-25T01:53:48;8.40;99.90
74901;DHT22;63461;51.416;6.758;2023-04-25T01:56:14;8.50;99.90
74901;DHT22;63461;51.416;6.758;2023-04-25T01:58:40;8.50;99.90
74901;DHT22;63461;51.416;6.758;2023-04-25T02:01:38;8.30;99.90
74901;DHT22;63461;51.416;6.758;2023-04-25T02:04:15;8.40;99.90
74901;DHT22;63461;51.416;6.758;2023-04-25T02:06:41;8.40;99.90
74901;DHT22;63461;51.416;6.758;2023-04-25T02:09:07;8.50;99.90
74901;DHT22;63461;51.416;6.758;2023-04-25T02:11:37;8.40;99.90
74901;DHT22;63461;51.416;6.758;2023-04-25T02:14:29;8.40;99.90
74901;DHT22;63461;51.416;6.758;2023-04-25T02:17:05;8.50;99.90
74901;DHT22;63461;51.416;6.758;2023-04-25T02:19:31;8.50;99.90
74901;DHT22;63461;51.416;6.758;2023-04-25T02:21:57;8.50;99.90
74901;DHT22;63461;51.416;6.758;2023-04-25T02:24:23;8.50;99.90
74901;DHT22;63461;51.416;6.758;2023-04-25T02:26:49;8.40;99.90
74901;DHT22;63461;51.416;6.758;2023-04-25T02:29:15;8.40;99.90
74901;DHT22;63461;51.416;6.758;2023-04-25T02:31:44;8.50;99.90
74901;DHT22;63461;51.416;6.758;2023-04-25T02:34:10;8.40;99.90
74901;DHT22;63461;51.416;6.758;2023-04-25T02:36:37;8.50;99.90
74901;DHT22;63461;51.416;6.758;2023-04-25T02:39:03;8.30;99.90
74901;DHT22;63461;51.416;6.758;2023-04-25T02:41:29;8.20;99.90
74901;DHT22;63461;51.416;6.758;2023-04-25T02:44:00;8.30;99.90
74901;DHT22;63461;51.416;6.758;2023-04-25T02:47:33;8.30;99.90
74901;DHT22;63461;51.416;6.758;2023-04-25T02:57:11;8.40;99.90
74901;DHT22;63461;51.416;6.758;2023-04-25T02:59:37;8.50;99.90
74901;DHT22;63461;51.416;6.758;2023-04-25T03:02:03;8.50;99.90
74901;DHT22;63461;51.416;6.758;2023-04-25T03:04:29;8.50;99.90
74901;DHT22;63461;51.416;6.758;2023-04-25T03:06:55;8.40;99.90
74901;DHT22;63461;51.416;6.758;2023-04-25T03:09:21;8.40;99.90
74901;DHT22;63461;51.416;6.758;2023-04-25T03:11:47;8.40;99.90
74901;DHT22;63461;51.416;6.758;2023-04-25T03:14:13;8.50;99.90
74901;DHT22;63461;51.416;6.758;2023-04-25T03:16:39;8.40;99.90
74901;DHT22;63461;51.416;6.758;2023-04-25T03:19:05;8.40;99.90
74901;DHT22;63461;51.416;6.758;2023-04-25T03:21:33;8.40;99.90
74901;DHT22;63461;51.416;6.758;2023-04-25T03:24:00;8.30;99.90
74901;DHT22;63461;51.416;6.758;2023-04-25T03:26:26;8.40;99.90
74901;DHT22;63461;51.416;6.758;2023-04-25T03:28:52;8.30;99.90
74901;DHT22;63461;51.416;6.758;2023-04-25T03:31:18;8.40;99.90
74901;DHT22;63461;51.416;6.758;2023-04-25T03:33:45;8.40;99.90
74901;DHT22;63461;51.416;6.758;2023-04-25T03:36:11;8.30;99.90
74901;DHT22;63461;51.416;6.758;2023-04-25T03:38:37;8.30;99.90
74901;DHT22;63461;51.416;6.758;2023-04-25T03:41:05;8.40;99.90
74901;DHT22;63461;51.416;6.758;2023-04-25T03:43:43;8.40;99.90
74901;DHT22;63461;51.416;6.758;2023-04-25T03:46:12;8.30;99.90
74901;DHT22;63461;51.416;6.758;2023-04-25T03:48:38;8.20;99.90
74901;DHT22;63461;51.416;6.758;2023-04-25T03:51:05;8.20;99.90
74901;DHT22;63461;51.416;6.758;2023-04-25T03:53:33;8.30;99.90
74901;DHT22;63461;51.416;6.758;2023-04-25T03:56:19;8.30;99.90
74901;DHT22;63461;51.416;6.758;2023-04-25T03:58:47;8.20;99.90
74901;DHT22;63461;51.416;6.758;2023-04-25T04:01:15;8.10;99.90
74901;DHT22;63461;51.416;6.758;2023-04-25T04:03:41;8.20;99.90
74901;DHT22;63461;51.416;6.758;2023-04-25T04:06:08;8.30;99.90
74901;DHT22;63461;51.416;6.758;2023-04-25T04:08:43;8.30;99.90
74901;DHT22;63461;51.416;6.758;2023-04-25T04:11:10;8.30;99.90
74901;DHT22;63461;51.416;6.758;2023-04-25T04:13:36;8.20;99.90
74901;DHT22;63461;51.416;6.758;2023-04-25T04:16:59;8.10;99.90
74901;DHT22;63461;51.416;6.758;2023-04-25T04:19:51;7.90;99.90
74901;DHT22;63461;51.416;6.758;2023-04-25T04:23:16;8.10;99.90
74901;DHT22;63461;51.416;6.758;2023-04-25T04:25:43;7.90;99.90
74901;DHT22;63461;51.416;6.758;2023-04-25T04:28:41;7.90;99.90
74901;DHT22;63461;51.416;6.758;2023-04-25T04:31:31;7.80;99.90
74901;DHT22;63461;51.416;6.758;2023-04-25T04:33:59;7.80;99.90
74901;DHT22;63461;51.416;6.758;2023-04-25T04:36:24;7.90;99.90
74901;DHT22;63461;51.416;6.758;2023-04-25T04:38:52;7.90;99.90
74901;DHT22;63461;51.416;6.758;2023-04-25T04:41:32;7.80;99.90
74901;DHT22;63461;51.416;6.758;2023-04-25T04:44:08;7.80;99.90
74901;DHT22;63461;51.416;6.758;2023-04-25T04:46:41;7.70;99.90
74901;DHT22;63461;51.416;6.758;2023-04-25T04:49:12;7.70;99.90
74901;DHT22;63461;51.416;6.758;2023-04-25T04:51:57;7.70;99.90
74901;DHT22;63461;51.416;6.758;2023-04-25T04:54:44;7.60;99.90
74901;DHT22;63461;51.416;6.758;2023-04-25T04:57:16;7.60;99.90
74901;DHT22;63461;51.416;6.758;2023-04-25T05:00:18;7.60;99.90
74901;DHT22;63461;51.416;6.758;2023-04-25T05:03:02;7.60;99.90
74901;DHT22;63461;51.416;6.758;2023-04-25T05:06:06;7.60;99.90
74901;DHT22;63461;51.416;6.758;2023-04-25T05:08:38;7.70;99.90
74901;DHT22;63461;51.416;6.758;2023-04-25T05:11:27;7.70;99.90
74901;DHT22;63461;51.416;6.758;2023-04-25T05:14:20;7.60;99.90
74901;DHT22;63461;51.416;6.758;2023-04-25T05:17:12;7.70;99.90
74901;DHT22;63461;51.416;6.758;2023-04-25T05:19:53;7.80;99.90
74901;DHT22;63461;51.416;6.758;2023-04-25T05:22:48;7.70;99.90
74901;DHT22;63461;51.416;6.758;2023-04-25T05:25:23;7.70;99.90
74901;DHT22;63461;51.416;6.758;2023-04-25T05:28:15;7.80;99.90
74901;DHT22;63461;51.416;6.758;2023-04-25T05:30:49;7.80;99.90
74901;DHT22;63461;51.416;6.758;2023-04-25T05:33:18;7.90;99.90
74901;DHT22;63461;51.416;6.758;2023-04-25T05:35:45;8.00;99.90
74901;DHT22;63461;51.416;6.758;2023-04-25T05:38:18;7.90;99.90
74901;DHT22;63461;51.416;6.758;2023-04-25T05:41:03;8.00;99.90
74901;DHT22;63461;51.416;6.758;2023-04-25T05:43:40;8.10;99.90
74901;DHT22;63461;51.416;6.758;2023-04-25T05:46:31;8.10;99.90
74901;DHT22;63461;51.416;6.758;2023-04-25T05:49:14;8.30;99.90
74901;DHT22;63461;51.416;6.758;2023-04-25T05:52:16;8.30;99.90
74901;DHT22;63461;51.416;6.758;2023-04-25T05:55:02;8.40;99.90
74901;DHT22;63461;51.416;6.758;2023-04-25T05:57:29;8.40;99.90
74901;DHT22;63461;51.416;6.758;2023-04-25T05:59:56;8.40;99.90
74901;DHT22;63461;51.416;6.758;2023-04-25T06:02:28;8.40;99.90
74901;DHT22;63461;51.416;6.758;2023-04-25T06:04:54;8.50;99.90
74901;DHT22;63461;51.416;6.758;2023-04-25T06:07:21;8.50;99.90
74901;DHT22;63461;51.416;6.758;2023-04-25T06:09:47;8.60;99.90
74901;DHT22;63461;51.416;6.758;2023-04-25T06:12:14;8.50;99.90
74901;DHT22;63461;51.416;6.758;2023-04-25T06:14:40;8.50;99.90
74901;DHT22;63461;51.416;6.758;2023-04-25T06:17:06;8.50;99.90
74901;DHT22;63461;51.416;6.758;2023-04-25T06:19:35;8.50;99.90
74901;DHT22;63461;51.416;6.758;2023-04-25T06:22:01;8.50;99.90
74901;DHT22;63461;51.416;6.758;2023-04-25T06:24:27;8.40;99.90
74901;DHT22;63461;51.416;6.758;2023-04-25T06:26:54;8.40;99.90
74901;DHT22;63461;51.416;6.758;2023-04-25T06:29:20;8.30;99.90
74901;DHT22;63461;51.416;6.758;2023-04-25T06:31:46;8.30;99.90
74901;DHT22;63461;51.416;6.758;2023-04-25T06:34:12;8.40;99.90
74901;DHT22;63461;51.416;6.758;2023-04-25T06:36:40;8.50;99.90
74901;DHT22;63461;51.416;6.758;2023-04-25T06:39:08;8.60;99.90
74901;DHT22;63461;51.416;6.758;2023-04-25T06:41:34;8.70;99.90
74901;DHT22;63461;51.416;6.758;2023-04-25T06:44:04;8.70;99.90
74901;DHT22;63461;51.416;6.758;2023-04-25T06:46:38;8.60;99.90
74901;DHT22;63461;51.416;6.758;2023-04-25T06:49:04;8.50;99.90
74901;DHT22;63461;51.416;6.758;2023-04-25T06:51:30;8.50;99.90
74901;DHT22;63461;51.416;6.758;2023-04-25T06:53:57;8.40;99.90
74901;DHT22;63461;51.416;6.758;2023-04-25T06:56:29;8.30;99.90
74901;DHT22;63461;51.416;6.758;2023-04-25T06:59:02;8.40;99.90
74901;DHT22;63461;51.416;6.758;2023-04-25T07:01:33;8.30;99.90
74901;DHT22;63461;51.416;6.758;2023-04-25T07:04:03;8.30;99.90
74901;DHT22;63461;51.416;6.758;2023-04-25T07:06:31;8.40;99.90
74901;DHT22;63461;51.416;6.758;2023-04-25T07:08:57;8.40;99.90
74901;DHT22;63461;51.416;6.758;2023-04-25T07:11:23;8.30;99.90
74901;DHT22;63461;51.416;6.758;2023-04-25T07:13:49;8.30;99.90
74901;DHT22;63461;51.416;6.758;2023-04-25T07:16:16;8.30;99.90
74901;DHT22;63461;51.416;6.758;2023-04-25T07:18:42;8.40;99.90
74901;DHT22;63461;51.416;6.758;2023-04-25T07:21:09;8.40;99.90
74901;DHT22;63461;51.416;6.758;2023-04-25T07:23:36;8.50;99.90
74901;DHT22;63461;51.416;6.758;2023-04-25T07:26:08;8.60;99.90
74901;DHT22;63461;51.416;6.758;2023-04-25T07:28:34;8.80;99.90
74901;DHT22;63461;51.416;6.758;2023-04-25T07:31:01;8.80;99.90
74901;DHT22;63461;51.416;6.758;2023-04-25T07:33:27;8.80;99.90
74901;DHT22;63461;51.416;6.758;2023-04-25T07:35:53;8.80;99.90
74901;DHT22;63461;51.416;6.758;2023-04-25T07:38:19;8.80;99.90
74901;DHT22;63461;51.416;6.758;2023-04-25T07:40:46;8.90;99.90
74901;DHT22;63461;51.416;6.758;2023-04-25T07:43:12;8.90;99.90
74901;DHT22;63461;51.416;6.758;2023-04-25T07:45:49;9.00;99.90
74901;DHT22;63461;51.416;6.758;2023-04-25T07:48:18;9.00;99.90
74901;DHT22;63461;51.416;6.758;2023-04-25T07:50:45;9.00;99.90
74901;DHT22;63461;51.416;6.758;2023-04-25T07:53:11;9.00;99.90
74901;DHT22;63461;51.416;6.758;2023-04-25T07:55:44;9.10;99.90
74901;DHT22;63461;51.416;6.758;2023-04-25T07:58:17;9.20;99.90
74901;DHT22;63461;51.416;6.758;2023-04-25T08:00:48;9.20;99.90
74901;DHT22;63461;51.416;6.758;2023-04-25T08:03:27;9.30;99.90
74901;DHT22;63461;51.416;6.758;2023-04-25T08:05:54;9.30;99.90
74901;DHT22;63461;51.416;6.758;2023-04-25T08:08:20;9.30;99.90
74901;DHT22;63461;51.416;6.758;2023-04-25T08:10:46;9.20;99.90
74901;DHT22;63461;51.416;6.758;2023-04-25T08:13:15;9.20;99.90
74901;DHT22;63461;51.416;6.758;2023-04-25T08:15:41;9.30;99.90
74901;DHT22;63461;51.416;6.758;2023-04-25T08:18:07;9.30;99.90
74901;DHT22;63461;51.416;6.758;2023-04-25T08:20:34;9.40;99.90
74901;DHT22;63461;51.416;6.758;2023-04-25T08:23:02;9.60;99.90
74901;DHT22;63461;51.416;6.758;2023-04-25T08:25:40;9.60;99.90
74901;DHT22;63461;51.416;6.758;2023-04-25T08:28:07;9.60;99.90
74901;DHT22;63461;51.416;6.758;2023-04-25T08:30:33;9.60;99.90
74901;DHT22;63461;51.416;6.758;2023-04-25T08:32:59;9.50;99.90
74901;DHT22;63461;51.416;6.758;2023-04-25T08:35:44;9.60;99.90
74901;DHT22;63461;51.416;6.758;2023-04-25T08:38:10;9.70;99.90
74901;DHT22;63461;51.416;6.758;2023-04-25T08:40:38;10.00;99.90
74901;DHT22;63461;51.416;6.758;2023-04-25T08:43:12;10.00;99.90
74901;DHT22;63461;51.416;6.758;2023-04-25T08:45:41;10.10;99.90
74901;DHT22;63461;51.416;6.758;2023-04-25T08:48:15;10.20;99.90
74901;DHT22;63461;51.416;6.758;2023-04-25T08:50:52;10.20;99.90
74901;DHT22;63461;51.416;6.758;2023-04-25T08:53:26;10.10;99.90
74901;DHT22;63461;51.416;6.758;2023-04-25T08:55:54;10.20;99.90
74901;DHT22;63461;51.416;6.758;2023-04-25T08:58:20;10.00;99.90
74901;DHT22;63461;51.416;6.758;2023-04-25T09:00:47;9.80;99.90
74901;DHT22;63461;51.416;6.758;2023-04-25T09:03:14;9.80;99.90
74901;DHT22;63461;51.416;6.758;2023-04-25T09:05:41;9.90;99.90
74901;DHT22;63461;51.416;6.758;2023-04-25T09:08:08;9.90;99.90
74901;DHT22;63461;51.416;6.758;2023-04-25T09:10:34;10.00;99.90
74901;DHT22;63461;51.416;6.758;2023-04-25T09:13:06;10.10;99.90
74901;DHT22;63461;51.416;6.758;2023-04-25T09:15:49;10.00;99.90
74901;DHT22;63461;51.416;6.758;2023-04-25T09:18:54;10.10;99.90
74901;DHT22;63461;51.416;6.758;2023-04-25T09:21:22;10.30;99.90
74901;DHT22;63461;51.416;6.758;2023-04-25T09:23:49;10.50;99.90
74901;DHT22;63461;51.416;6.758;2023-04-25T09:26:20;10.70;99.90
74901;DHT22;63461;51.416;6.758;2023-04-25T09:28:47;10.60;99.90
74901;DHT22;63461;51.416;6.758;2023-04-25T09:31:25;10.80;99.90
74901;DHT22;63461;51.416;6.758;2023-04-25T09:34:02;10.80;99.90
74901;DHT22;63461;51.416;6.758;2023-04-25T09:36:34;10.90;99.90
74901;DHT22;63461;51.416;6.758;2023-04-25T09:39:18;11.00;99.90
74901;DHT22;63461;51.416;6.758;2023-04-25T09:41:56;11.10;99.90
74901;DHT22;63461;51.416;6.758;2023-04-25T09:44:25;11.00;99.90
74901;DHT22;63461;51.416;6.758;2023-04-25T09:47:01;11.00;99.90
74901;DHT22;63461;51.416;6.758;2023-04-25T09:49:42;11.00;99.90
74901;DHT22;63461;51.416;6.758;2023-04-25T09:52:18;11.00;99.90
74901;DHT22;63461;51.416;6.758;2023-04-25T09:54:54;11.00;99.90
74901;DHT22;63461;51.416;6.758;2023-04-25T09:57:28;11.00;99.90
74901;DHT22;63461;51.416;6.758;2023-04-25T09:59:56;11.00;99.90
74901;DHT22;63461;51.416;6.758;2023-04-25T10:02:26;10.90;99.90
74901;DHT22;63461;51.416;6.758;2023-04-25T10:04:56;10.90;99.90
74901;DHT22;63461;51.416;6.758;2023-04-25T10:07:31;11.00;97.30
74901;DHT22;63461;51.416;6.758;2023-04-25T10:10:02;11.20;98.50
74901;DHT22;63461;51.416;6.758;2023-04-25T10:12:30;11.20;98.40
74901;DHT22;63461;51.416;6.758;2023-04-25T10:14:59;11.10;98.10
74901;DHT22;63461;51.416;6.758;2023-04-25T10:17:29;11.20;98.10
74901;DHT22;63461;51.416;6.758;2023-04-25T10:19:55;11.30;98.30
74901;DHT22;63461;51.416;6.758;2023-04-25T10:22:34;11.20;97.50
74901;DHT22;63461;51.416;6.758;2023-04-25T10:25:01;11.00;97.40
74901;DHT22;63461;51.416;6.758;2023-04-25T10:27:49;11.00;98.00
74901;DHT22;63461;51.416;6.758;2023-04-25T10:30:15;11.00;97.10
74901;DHT22;63461;51.416;6.758;2023-04-25T10:32:42;11.10;96.20
74901;DHT22;63461;51.416;6.758;2023-04-25T10:38:11;11.10;96.70
74901;DHT22;63461;51.416;6.758;2023-04-25T10:40:39;11.40;97.10
74901;DHT22;63461;51.416;6.758;2023-04-25T10:46:04;11.50;94.10
74901;DHT22;63461;51.416;6.758;2023-04-25T10:48:53;11.80;93.40
74901;DHT22;63461;51.416;6.758;2023-04-25T10:51:24;11.60;93.80
74901;DHT22;63461;51.416;6.758;2023-04-25T10:54:01;11.90;93.00
74901;DHT22;63461;51.416;6.758;2023-04-25T11:01:51;11.40;97.60
74901;DHT22;63461;51.416;6.758;2023-04-25T11:04:24;11.20;99.30
74901;DHT22;63461;51.416;6.758;2023-04-25T11:09:49;11.10;99.90
74901;DHT22;63461;51.416;6.758;2023-04-25T11:12:15;11.00;99.90
74901;DHT22;63461;51.416;6.758;2023-04-25T11:14:42;11.00;99.90
74901;DHT22;63461;51.416;6.758;2023-04-25T11:17:08;10.80;99.90
74901;DHT22;63461;51.416;6.758;2023-04-25T11:19:34;10.70;99.90
74901;DHT22;63461;51.416;6.758;2023-04-25T11:22:01;10.90;99.90
74901;DHT22;63461;51.416;6.758;2023-04-25T11:24:28;11.00;99.90
74901;DHT22;63461;51.416;6.758;2023-04-25T11:26:54;11.00;99.90
74901;DHT22;63461;51.416;6.758;2023-04-25T11:29:26;11.10;99.90
74901;DHT22;63461;51.416;6.758;2023-04-25T11:31:52;11.20;99.90
74901;DHT22;63461;51.416;6.758;2023-04-25T11:34:19;11.20;99.90
74901;DHT22;63461;51.416;6.758;2023-04-25T11:36:46;11.30;99.90
74901;DHT22;63461;51.416;6.758;2023-04-25T11:39:12;11.20;99.90
74901;DHT22;63461;51.416;6.758;2023-04-25T11:41:38;11.10;99.90
74901;DHT22;63461;51.416;6.758;2023-04-25T11:44:05;11.10;99.90
74901;DHT22;63461;51.416;6.758;2023-04-25T11:46:33;11.00;99.90
74901;DHT22;63461;51.416;6.758;2023-04-25T11:48:59;10.60;99.90
74901;DHT22;63461;51.416;6.758;2023-04-25T11:51:25;10.70;99.90
74901;DHT22;63461;51.416;6.758;2023-04-25T11:53:51;10.70;99.90
74901;DHT22;63461;51.416;6.758;2023-04-25T12:37:11;10.30;99.90
74901;DHT22;63461;51.416;6.758;2023-04-25T12:39:37;10.30;99.90
74901;DHT22;63461;51.416;6.758;2023-04-25T12:42:03;10.30;99.90
74901;DHT22;63461;51.416;6.758;2023-04-25T12:44:29;10.30;99.90
74901;DHT22;63461;51.416;6.758;2023-04-25T12:56:25;11.50;99.90
74901;DHT22;63461;51.416;6.758;2023-04-25T12:59:04;11.20;99.90
74901;DHT22;63461;51.416;6.758;2023-04-25T13:01:37;11.20;99.90
74901;DHT22;63461;51.416;6.758;2023-04-25T13:04:03;11.20;99.90
74901;DHT22;63461;51.416;6.758;2023-04-25T13:06:34;11.00;99.90
74901;DHT22;63461;51.416;6.758;2023-04-25T13:09:03;10.90;99.90
74901;DHT22;63461;51.416;6.758;2023-04-25T13:11:30;10.90;99.90
74901;DHT22;63461;51.416;6.758;2023-04-25T13:14:04;10.70;99.90
74901;DHT22;63461;51.416;6.758;2023-04-25T13:16:33;10.80;99.90
74901;DHT22;63461;51.416;6.758;2023-04-25T13:19:27;10.80;99.90
74901;DHT22;63461;51.416;6.758;2023-04-25T13:22:05;10.60;99.90
74901;DHT22;63461;51.416;6.758;2023-04-25T13:24:36;10.50;99.90
74901;DHT22;63461;51.416;6.758;2023-04-25T13:27:03;10.50;99.90
74901;DHT22;63461;51.416;6.758;2023-04-25T13:29:29;10.40;99.90
74901;DHT22;63461;51.416;6.758;2023-04-25T13:31:55;10.50;99.90
74901;DHT22;63461;51.416;6.758;2023-04-25T13:34:23;10.60;99.90
74901;DHT22;63461;51.416;6.758;2023-04-25T13:40:56;10.60;99.90
74901;DHT22;63461;51.416;6.758;2023-04-25T13:44:06;10.80;99.90
74901;DHT22;63461;51.416;6.758;2023-04-25T13:46:48;11.20;99.90
74901;DHT22;63461;51.416;6.758;2023-04-25T13:49:26;11.10;99.90
74901;DHT22;63461;51.416;6.758;2023-04-25T13:51:55;11.20;99.90
74901;DHT22;63461;51.416;6.758;2023-04-25T13:54:24;11.10;99.90
74901;DHT22;63461;51.416;6.758;2023-04-25T13:56:55;10.90;99.30
74901;DHT22;63461;51.416;6.758;2023-04-25T13:59:30;11.00;99.20
74901;DHT22;63461;51.416;6.758;2023-04-25T14:01:59;10.90;99.90
74901;DHT22;63461;51.416;6.758;2023-04-25T14:04:25;11.10;99.90
74901;DHT22;63461;51.416;6.758;2023-04-25T14:06:57;11.10;99.90
74901;DHT22;63461;51.416;6.758;2023-04-25T14:09:24;11.30;99.90
74901;DHT22;63461;51.416;6.758;2023-04-25T14:11:54;11.40;99.90
74901;DHT22;63461;51.416;6.758;2023-04-25T14:14:46;11.60;99.90
74901;DHT22;63461;51.416;6.758;2023-04-25T14:17:28;11.40;99.90
74901;DHT22;63461;51.416;6.758;2023-04-25T14:20:19;11.50;99.40
74901;DHT22;63461;51.416;6.758;2023-04-25T14:23:18;11.60;98.80
74901;DHT22;63461;51.416;6.758;2023-04-25T14:25:44;11.70;99.70
74901;DHT22;63461;51.416;6.758;2023-04-25T14:28:16;11.50;98.50
74901;DHT22;63461;51.416;6.758;2023-04-25T14:31:03;11.50;98.40
74901;DHT22;63461;51.416;6.758;2023-04-25T14:33:37;11.60;98.20
74901;DHT22;63461;51.416;6.758;2023-04-25T14:36:19;11.50;97.50
74901;DHT22;63461;51.416;6.758;2023-04-25T14:38:44;11.50;96.80
74901;DHT22;63461;51.416;6.758;2023-04-25T14:41:17;11.50;96.60
74901;DHT22;63461;51.416;6.758;2023-04-25T14:43:46;11.50;96.80
74901;DHT22;63461;51.416;6.758;2023-04-25T14:46:15;11.20;97.90
74901;DHT22;63461;51.416;6.758;2023-04-25T14:57:44;11.20;99.90
74901;DHT22;63461;51.416;6.758;2023-04-25T15:00:12;11.00;99.90
74901;DHT22;63461;51.416;6.758;2023-04-25T15:02:41;10.90;99.90
74901;DHT22;63461;51.416;6.758;2023-04-25T15:05:10;11.00;99.90
74901;DHT22;63461;51.416;6.758;2023-04-25T15:07:35;11.10;99.60
74901;DHT22;63461;51.416;6.758;2023-04-25T15:10:02;11.10;99.50
74901;DHT22;63461;51.416;6.758;2023-04-25T15:12:29;11.10;99.10
74901;DHT22;63461;51.416;6.758;2023-04-25T15:14:55;11.00;99.10
74901;DHT22;63461;51.416;6.758;2023-04-25T15:17:23;11.00;99.20
74901;DHT22;63461;51.416;6.758;2023-04-25T15:19:49;11.00;99.30
74901;DHT22;63461;51.416;6.758;2023-04-25T15:33:27;11.00;95.90
74901;DHT22;63461;51.416;6.758;2023-04-25T15:35:58;10.90;96.30
74901;DHT22;63461;51.416;6.758;2023-04-25T15:38:24;10.80;96.90
74901;DHT22;63461;51.416;6.758;2023-04-25T15:44:55;10.90;96.50
74901;DHT22;63461;51.416;6.758;2023-04-25T15:47:21;11.10;96.20
74901;DHT22;63461;51.416;6.758;2023-04-25T15:49:57;11.30;96.40
74901;DHT22;63461;51.416;6.758;2023-04-25T15:52:38;11.50;95.60
74901;DHT22;63461;51.416;6.758;2023-04-25T15:55:05;11.50;94.80
74901;DHT22;63461;51.416;6.758;2023-04-25T15:57:45;11.50;95.60
74901;DHT22;63461;51.416;6.758;2023-04-25T16:00:16;11.50;95.10
74901;DHT22;63461;51.416;6.758;2023-04-25T16:02:45;11.50;92.90
74901;DHT22;63461;51.416;6.758;2023-04-25T16:05:36;11.50;92.20
74901;DHT22;63461;51.416;6.758;2023-04-25T16:08:14;11.50;93.10
74901;DHT22;63461;51.416;6.758;2023-04-25T16:11:05;11.50;93.40
74901;DHT22;63461;51.416;6.758;2023-04-25T16:13:37;11.40;93.60
74901;DHT22;63461;51.416;6.758;2023-04-25T16:16:06;11.40;94.40
74901;DHT22;63461;51.416;6.758;2023-04-25T16:18:36;11.40;94.60
74901;DHT22;63461;51.416;6.758;2023-04-25T16:21:08;11.30;94.60
74901;DHT22;63461;51.416;6.758;2023-04-25T16:23:37;11.40;94.60
74901;DHT22;63461;51.416;6.758;2023-04-25T16:26:03;11.30;92.60
74901;DHT22;63461;51.416;6.758;2023-04-25T16:28:34;11.30;92.80
74901;DHT22;63461;51.416;6.758;2023-04-25T16:31:26;11.10;92.70
74901;DHT22;63461;51.416;6.758;2023-04-25T16:33:54;11.10;92.80
74901;DHT22;63461;51.416;6.758;2023-04-25T16:36:26;11.10;93.10
74901;DHT22;63461;51.416;6.758;2023-04-25T16:38:55;11.00;93.50
74901;DHT22;63461;51.416;6.758;2023-04-25T16:41:21;11.10;93.50
74901;DHT22;63461;51.416;6.758;2023-04-25T16:43:57;10.90;94.50
74901;DHT22;63461;51.416;6.758;2023-04-25T16:46:26;11.00;94.40
74901;DHT22;63461;51.416;6.758;2023-04-25T16:48:52;11.00;94.40
74901;DHT22;63461;51.416;6.758;2023-04-25T16:51:18;11.00;94.50
74901;DHT22;63461;51.416;6.758;2023-04-25T16:53:44;11.10;94.30
74901;DHT22;63461;51.416;6.758;2023-04-25T16:56:11;11.10;94.40
74901;DHT22;63461;51.416;6.758;2023-04-25T16:58:43;11.00;94.10
74901;DHT22;63461;51.416;6.758;2023-04-25T17:01:15;11.10;94.00
74901;DHT22;63461;51.416;6.758;2023-04-25T17:03:47;11.00;94.50
74901;DHT22;63461;51.416;6.758;2023-04-25T17:06:17;11.00;93.90
74901;DHT22;63461;51.416;6.758;2023-04-25T17:08:43;11.00;94.10
74901;DHT22;63461;51.416;6.758;2023-04-25T17:11:25;11.00;94.20
74901;DHT22;63461;51.416;6.758;2023-04-25T17:13:54;11.00;94.40
74901;DHT22;63461;51.416;6.758;2023-04-25T17:16:32;10.90;94.90
74901;DHT22;63461;51.416;6.758;2023-04-25T17:19:04;10.90;95.10
74901;DHT22;63461;51.416;6.758;2023-04-25T17:21:30;11.00;95.50
74901;DHT22;63461;51.416;6.758;2023-04-25T17:24:02;10.90;95.90
74901;DHT22;63461;51.416;6.758;2023-04-25T17:26:30;10.90;95.50
74901;DHT22;63461;51.416;6.758;2023-04-25T17:29:08;10.90;95.70
74901;DHT22;63461;51.416;6.758;2023-04-25T17:31:35;10.90;95.80
74901;DHT22;63461;51.416;6.758;2023-04-25T17:34:04;10.90;96.20
74901;DHT22;63461;51.416;6.758;2023-04-25T17:36:34;10.80;96.50
74901;DHT22;63461;51.416;6.758;2023-04-25T17:39:06;10.90;96.20
74901;DHT22;63461;51.416;6.758;2023-04-25T17:42:15;10.80;95.30
74901;DHT22;63461;51.416;6.758;2023-04-25T17:45:07;10.80;95.00
74901;DHT22;63461;51.416;6.758;2023-04-25T17:48:35;10.60;96.10